createdAt,value
2019-05-12T00:00:34.694Z,77.58
2019-05-12T00:03:04.713Z,78.37
2019-05-12T00:05:34.824Z,78.32
2019-05-12T00:08:04.964Z,78.36
2019-05-12T00:10:38.637Z,79.03
2019-05-12T00:13:08.590Z,79.34
2019-05-12T00:15:38.820Z,78.84
2019-05-12T00:18:09.376Z,79.13
2019-05-12T00:20:39.558Z,78.73
2019-05-12T00:23:23.979Z,78.75
2019-05-12T00:25:41.320Z,78.79
2019-05-12T00:28:11.380Z,79.10
2019-05-12T00:30:48.591Z,78.67
2019-05-12T00:33:18.166Z,78.54
2019-05-12T00:35:48.433Z,79.23
2019-05-12T00:38:18.536Z,79.11
2019-05-12T00:40:48.563Z,78.72
2019-05-12T00:43:18.953Z,79.31
2019-05-12T00:45:49.102Z,79.50
2019-05-12T00:48:19.092Z,79.42
2019-05-12T00:50:52.112Z,79.79
2019-05-12T00:53:36.196Z,79.20
2019-05-12T00:55:57.909Z,79.39
2019-05-12T00:58:28.053Z,79.39
2019-05-12T01:00:59.541Z,79.43
2019-05-12T01:03:30.799Z,79.86
2019-05-12T01:06:00.811Z,79.29
2019-05-12T01:08:30.800Z,79.63
2019-05-12T01:11:00.877Z,79.45
2019-05-12T01:13:30.871Z,79.52
2019-05-12T01:16:00.864Z,79.39
2019-05-12T01:18:30.940Z,79.64
2019-05-12T01:21:00.944Z,79.76
2019-05-12T01:23:31.935Z,79.66
2019-05-12T01:26:01.921Z,80.42
2019-05-12T01:28:31.947Z,80.10
2019-05-12T01:31:03.568Z,80.47
2019-05-12T01:33:33.588Z,79.78
2019-05-12T01:36:07.969Z,79.77
2019-05-12T01:38:38.143Z,80.09
2019-05-12T01:41:08.753Z,80.05
2019-05-12T01:43:38.902Z,80.16
2019-05-12T01:46:08.926Z,80.07
2019-05-12T01:48:38.909Z,80.25
2019-05-12T01:51:08.991Z,80.53
2019-05-12T01:53:38.983Z,80.62
2019-05-12T01:56:09.592Z,80.55
2019-05-12T01:58:39.601Z,81.06
2019-05-12T02:01:09.613Z,80.85
2019-05-12T02:03:39.614Z,81.07
2019-05-12T02:06:09.599Z,80.96
2019-05-12T02:08:50.379Z,80.51
2019-05-12T02:11:32.690Z,81.04
2019-05-12T02:14:05.241Z,81.36
2019-05-12T02:16:35.368Z,80.95
2019-05-12T02:19:05.448Z,81.56
2019-05-12T02:21:38.222Z,81.80
2019-05-12T02:24:07.779Z,81.63
2019-05-12T02:26:38.387Z,81.62
2019-05-12T02:29:08.567Z,82.09
2019-05-12T02:31:39.715Z,82.07
2019-05-12T02:34:15.707Z,82.30
2019-05-12T02:36:45.068Z,82.27
2019-05-12T02:39:15.322Z,82.25
2019-05-12T02:41:46.545Z,81.94
2019-05-12T02:44:16.586Z,82.27
2019-05-12T02:46:46.600Z,82.25
2019-05-12T02:49:16.610Z,82.78
2019-05-12T02:51:48.694Z,82.92
2019-05-12T02:54:20.619Z,82.94
2019-05-12T02:56:55.105Z,82.63
2019-05-12T02:59:25.560Z,82.78
2019-05-12T03:01:58.981Z,82.87
2019-05-12T03:04:31.477Z,82.50
2019-05-12T03:07:06.500Z,82.89
2019-05-12T03:09:35.506Z,83.22
2019-05-12T03:12:06.177Z,83.05
2019-05-12T03:14:40.516Z,83.32
2019-05-12T03:17:08.241Z,82.94
2019-05-12T03:19:39.788Z,83.33
2019-05-12T03:22:09.773Z,83.28
2019-05-12T03:24:39.776Z,82.94
2019-05-12T03:27:09.763Z,83.18
2019-05-12T03:29:39.793Z,83.36
2019-05-12T03:32:09.910Z,83.83
2019-05-12T03:34:39.941Z,83.57
2019-05-12T03:37:09.903Z,83.25
2019-05-12T03:39:39.907Z,83.19
2019-05-12T03:42:09.908Z,83.25
2019-05-12T03:44:39.906Z,83.34
2019-05-12T03:47:09.984Z,83.19
2019-05-12T03:49:39.997Z,83.56
2019-05-12T03:52:15.250Z,83.51
2019-05-12T03:54:45.260Z,83.71
2019-05-12T03:57:15.309Z,83.37
2019-05-12T03:59:49.914Z,83.29
2019-05-12T04:02:19.931Z,83.40
2019-05-12T04:04:49.930Z,83.11
2019-05-12T04:07:19.956Z,82.94
2019-05-12T04:09:50.043Z,82.99
2019-05-12T04:12:20.047Z,82.92
2019-05-12T04:14:50.034Z,82.90
2019-05-12T04:17:20.051Z,82.95
2019-05-12T04:19:50.112Z,82.87
2019-05-12T04:22:24.685Z,82.61
2019-05-12T04:24:55.073Z,82.55
2019-05-12T04:27:25.457Z,82.96
2019-05-12T04:29:55.492Z,82.74
2019-05-12T04:32:28.783Z,82.57
2019-05-12T04:34:59.077Z,82.80
2019-05-12T04:37:29.077Z,82.79
2019-05-12T04:39:59.085Z,82.52
2019-05-12T04:42:29.073Z,82.54
2019-05-12T04:44:59.086Z,82.75
2019-05-12T04:47:29.067Z,82.44
2019-05-12T04:49:59.066Z,82.26
2019-05-12T04:52:29.125Z,82.37
2019-05-12T04:54:59.130Z,82.83
2019-05-12T04:57:29.137Z,82.80
2019-05-12T04:59:59.237Z,82.82
2019-05-12T05:02:29.295Z,82.14
2019-05-12T05:04:59.307Z,82.27
2019-05-12T05:07:29.302Z,82.20
2019-05-12T05:09:59.298Z,81.60
2019-05-12T05:12:29.302Z,81.50
2019-05-12T05:14:59.282Z,81.56
2019-05-12T05:17:29.303Z,81.41
2019-05-12T05:19:59.309Z,81.42
2019-05-12T05:22:29.362Z,81.20
2019-05-12T05:24:59.355Z,81.04
2019-05-12T05:27:29.365Z,81.34
2019-05-12T05:29:59.355Z,81.20
2019-05-12T05:32:29.376Z,80.69
2019-05-12T05:34:59.365Z,80.43
2019-05-12T05:37:30.686Z,79.97
2019-05-12T05:40:03.743Z,79.58
2019-05-12T05:42:35.555Z,79.98
2019-05-12T05:45:09.931Z,79.37
2019-05-12T05:47:38.693Z,79.04
2019-05-12T05:50:09.025Z,78.34
2019-05-12T05:52:39.039Z,77.95
2019-05-12T05:55:14.485Z,77.84
2019-05-12T05:57:41.016Z,77.99
2019-05-12T06:00:17.275Z,76.77
2019-05-12T06:02:44.091Z,76.92
2019-05-12T06:05:14.613Z,76.88
2019-05-12T06:07:44.619Z,76.46
2019-05-12T06:10:16.232Z,76.05
2019-05-12T06:12:50.651Z,75.79
2019-05-12T06:15:19.618Z,76.53
2019-05-12T06:17:49.632Z,75.43
2019-05-12T06:20:19.780Z,75.32
2019-05-12T06:22:54.584Z,75.37
2019-05-12T06:25:21.490Z,75.39
2019-05-12T06:28:00.017Z,75.41
2019-05-12T06:30:24.291Z,74.80
2019-05-12T06:32:54.700Z,73.96
2019-05-12T06:35:30.874Z,74.13
2019-05-12T06:38:01.839Z,73.97
2019-05-12T06:40:40.266Z,72.88
2019-05-12T06:43:04.423Z,73.06
2019-05-12T06:45:41.819Z,73.88
2019-05-12T06:48:07.300Z,71.57
2019-05-12T06:50:39.521Z,72.21
2019-05-12T06:53:09.696Z,70.63
2019-05-12T06:55:39.686Z,71.70
2019-05-12T06:58:09.690Z,70.41
2019-05-12T07:00:40.794Z,71.21
2019-05-12T07:03:14.241Z,69.48
2019-05-12T07:05:46.040Z,68.28
2019-05-12T07:08:20.071Z,69.75
2019-05-12T07:11:00.807Z,68.27
2019-05-12T07:13:23.343Z,67.68
2019-05-12T07:15:51.234Z,67.19
2019-05-12T07:18:31.746Z,67.50
2019-05-12T07:20:54.898Z,68.52
2019-05-12T07:23:29.848Z,66.94
2019-05-12T07:25:56.756Z,65.04
2019-05-12T07:28:30.490Z,65.87
2019-05-12T07:30:58.495Z,65.89
2019-05-12T07:33:32.846Z,64.98
2019-05-12T07:36:01.991Z,66.68
2019-05-12T07:38:37.633Z,65.74
2019-05-12T07:41:10.731Z,69.43
2019-05-12T07:43:44.318Z,65.09
2019-05-12T07:46:16.165Z,64.24
2019-05-12T07:48:50.842Z,62.79
2019-05-12T07:51:17.987Z,63.41
2019-05-12T07:53:55.204Z,63.41
2019-05-12T07:56:24.810Z,63.04
2019-05-12T07:58:54.780Z,63.04
2019-05-12T08:01:23.591Z,63.56
2019-05-12T08:03:57.356Z,63.23
2019-05-12T08:06:25.609Z,61.90
2019-05-12T08:08:58.894Z,60.62
2019-05-12T08:11:28.686Z,60.03
2019-05-12T08:13:59.053Z,58.85
2019-05-12T08:16:33.671Z,58.55
2019-05-12T08:19:00.808Z,58.98
2019-05-12T08:21:34.862Z,59.80
2019-05-12T08:24:03.732Z,56.34
2019-05-12T08:26:33.920Z,54.58
2019-05-12T08:29:04.441Z,51.76
2019-05-12T08:31:40.105Z,53.76
2019-05-12T08:34:07.386Z,55.80
2019-05-12T08:36:37.384Z,54.68
2019-05-12T08:39:11.910Z,52.46
2019-05-12T08:41:39.833Z,53.26
2019-05-12T08:44:09.977Z,51.93
2019-05-12T08:46:51.204Z,52.70
2019-05-12T08:49:14.427Z,53.20
2019-05-12T08:51:49.579Z,52.57
2019-05-12T08:54:16.329Z,53.55
2019-05-12T08:56:51.068Z,52.51
2019-05-12T08:59:24.194Z,55.42
2019-05-12T09:01:50.044Z,52.47
2019-05-12T09:04:20.171Z,48.94
2019-05-12T09:06:56.410Z,49.40
2019-05-12T09:09:23.270Z,49.39
2019-05-12T09:11:54.246Z,48.21
2019-05-12T09:14:24.454Z,49.28
2019-05-12T09:17:02.633Z,49.15
2019-05-12T09:19:27.327Z,48.57
2019-05-12T09:21:57.545Z,48.06
2019-05-12T09:24:27.595Z,46.48
2019-05-12T09:26:59.078Z,49.83
2019-05-12T09:29:30.923Z,47.87
2019-05-12T09:32:07.428Z,47.18
2019-05-12T09:34:33.612Z,49.45
2019-05-12T09:37:04.177Z,48.13
2019-05-12T09:39:42.870Z,48.69
2019-05-12T09:42:06.084Z,52.47
2019-05-12T09:44:37.160Z,49.90
2019-05-12T09:47:12.934Z,48.14
2019-05-12T09:49:39.697Z,45.85
2019-05-12T09:52:13.826Z,47.97
2019-05-12T09:54:44.444Z,47.26
2019-05-12T09:57:14.561Z,44.21
2019-05-12T09:59:45.928Z,42.68
2019-05-12T10:02:20.683Z,44.84
2019-05-12T10:04:56.476Z,42.12
2019-05-12T10:07:23.076Z,46.47
2019-05-12T10:09:57.524Z,48.95
2019-05-12T10:12:25.867Z,47.43
2019-05-12T10:14:58.739Z,43.81
2019-05-12T10:17:30.333Z,44.92
2019-05-12T10:20:00.604Z,44.90
2019-05-12T10:22:40.051Z,45.68
2019-05-12T10:25:14.163Z,45.60
2019-05-12T10:27:44.300Z,44.90
2019-05-12T10:30:17.460Z,41.43
2019-05-12T10:32:48.799Z,43.26
2019-05-12T10:35:21.369Z,42.02
2019-05-12T10:37:51.157Z,39.10
2019-05-12T10:40:23.396Z,39.68
2019-05-12T10:42:53.619Z,40.84
2019-05-12T10:45:25.607Z,39.89
2019-05-12T10:47:55.605Z,43.01
2019-05-12T10:50:25.643Z,42.53
2019-05-12T10:52:55.617Z,43.33
2019-05-12T10:55:25.681Z,43.57
2019-05-12T10:58:01.436Z,43.41
2019-05-12T11:00:29.052Z,42.63
2019-05-12T11:03:01.611Z,39.76
2019-05-12T11:05:30.776Z,40.98
2019-05-12T11:08:06.587Z,38.57
2019-05-12T11:10:32.628Z,39.30
2019-05-12T11:13:08.453Z,39.57
2019-05-12T11:15:39.517Z,38.97
2019-05-12T11:18:09.596Z,39.37
2019-05-12T11:20:41.377Z,38.56
2019-05-12T11:23:13.667Z,36.44
2019-05-12T11:25:43.974Z,37.04
2019-05-12T11:28:14.227Z,36.72
2019-05-12T11:30:45.228Z,36.42
2019-05-12T11:33:16.130Z,37.59
2019-05-12T11:35:46.470Z,39.59
2019-05-12T11:38:16.624Z,39.58
2019-05-12T11:40:46.598Z,39.74
2019-05-12T11:43:16.777Z,40.43
2019-05-12T11:45:46.800Z,40.06
2019-05-12T11:48:16.803Z,39.20
2019-05-12T11:50:51.185Z,36.21
2019-05-12T11:53:21.815Z,37.99
2019-05-12T11:55:50.236Z,39.83
2019-05-12T11:58:20.258Z,39.00
2019-05-12T12:00:53.301Z,38.27
2019-05-12T12:03:27.493Z,37.81
2019-05-12T12:05:57.649Z,36.39
2019-05-12T12:08:35.652Z,37.71
2019-05-12T12:10:59.367Z,39.71
2019-05-12T12:13:30.121Z,37.04
2019-05-12T12:16:05.581Z,37.40
2019-05-12T12:18:33.809Z,39.46
2019-05-12T12:21:07.666Z,38.41
2019-05-12T12:23:35.551Z,38.71
2019-05-12T12:26:05.546Z,39.05
2019-05-12T12:28:35.571Z,38.42
2019-05-12T12:31:07.901Z,37.65
2019-05-12T12:33:40.695Z,37.58
2019-05-12T12:36:09.608Z,39.23
2019-05-12T12:38:39.625Z,38.80
2019-05-12T12:41:09.738Z,40.38
2019-05-12T12:43:39.746Z,37.07
2019-05-12T12:46:17.856Z,38.11
2019-05-12T12:48:45.545Z,37.33
2019-05-12T12:51:17.608Z,36.54
2019-05-12T12:53:47.248Z,35.89
2019-05-12T12:56:25.205Z,37.93
2019-05-12T12:58:49.383Z,38.41
2019-05-12T13:01:26.450Z,40.19
2019-05-12T13:03:59.260Z,37.68
2019-05-12T13:06:26.262Z,36.74
2019-05-12T13:08:57.918Z,35.62
2019-05-12T13:11:33.778Z,37.07
2019-05-12T13:14:04.097Z,37.71
2019-05-12T13:16:34.339Z,36.27
2019-05-12T13:19:12.172Z,38.45
2019-05-12T13:21:36.294Z,40.78
2019-05-12T13:24:06.319Z,38.93
2019-05-12T13:26:36.309Z,38.40
2019-05-12T13:29:07.824Z,37.89
2019-05-12T13:31:41.114Z,38.46
2019-05-12T13:34:09.815Z,35.90
2019-05-12T13:36:44.044Z,36.19
2019-05-12T13:39:16.596Z,36.12
2019-05-12T13:41:50.293Z,37.72
2019-05-12T13:44:18.650Z,39.21
2019-05-12T13:46:57.011Z,36.79
2019-05-12T13:49:24.364Z,37.28
2019-05-12T13:51:53.923Z,36.24
2019-05-12T13:54:26.042Z,37.97
2019-05-12T13:56:55.727Z,37.70
2019-05-12T13:59:25.725Z,38.91
2019-05-12T14:01:55.781Z,39.48
2019-05-12T14:04:27.845Z,39.50
2019-05-12T14:06:57.681Z,37.31
2019-05-12T14:09:28.179Z,36.26
2019-05-12T14:11:58.309Z,35.28
2019-05-12T14:14:31.317Z,38.50
2019-05-12T14:17:05.923Z,35.01
2019-05-12T14:19:37.333Z,35.52
2019-05-12T14:22:15.571Z,34.80
2019-05-12T14:24:42.351Z,32.69
2019-05-12T14:27:12.036Z,33.88
2019-05-12T14:29:44.118Z,34.06
2019-05-12T14:32:17.509Z,34.59
2019-05-12T14:34:51.062Z,36.50
2019-05-12T14:37:21.107Z,36.35
2019-05-12T14:39:51.139Z,35.65
2019-05-12T14:42:26.069Z,37.10
2019-05-12T14:44:54.151Z,38.01
2019-05-12T14:47:27.880Z,38.21
2019-05-12T14:49:55.908Z,38.28
2019-05-12T14:52:25.907Z,38.59
2019-05-12T14:54:57.185Z,37.71
2019-05-12T14:57:29.432Z,38.97
2019-05-12T15:00:03.812Z,36.05
2019-05-12T15:02:34.574Z,36.73
2019-05-12T15:05:10.621Z,39.28
2019-05-12T15:07:42.534Z,38.32
2019-05-12T15:10:09.627Z,39.48
2019-05-12T15:12:39.824Z,39.58
2019-05-12T15:15:18.483Z,37.46
2019-05-12T15:17:48.478Z,36.17
2019-05-12T15:20:24.094Z,37.42
2019-05-12T15:22:56.020Z,37.14
2019-05-12T15:25:29.431Z,38.41
2019-05-12T15:27:57.919Z,36.34
2019-05-12T15:30:27.976Z,36.89
2019-05-12T15:32:58.089Z,36.97
2019-05-12T15:35:28.355Z,36.55
2019-05-12T15:37:58.377Z,37.23
2019-05-12T15:40:31.142Z,36.18
2019-05-12T15:43:05.187Z,34.96
2019-05-12T15:45:34.255Z,34.27
2019-05-12T15:48:09.655Z,34.65
2019-05-12T15:50:45.680Z,34.11
2019-05-12T15:53:22.697Z,35.38
2019-05-12T15:55:54.331Z,34.48
2019-05-12T15:58:26.438Z,34.88
2019-05-12T16:00:58.041Z,34.94
2019-05-12T16:03:28.420Z,36.08
2019-05-12T16:06:01.374Z,36.63
2019-05-12T16:08:33.376Z,35.38
2019-05-12T16:11:05.075Z,34.74
2019-05-12T16:13:35.354Z,35.56
2019-05-12T16:16:06.721Z,36.64
2019-05-12T16:18:40.496Z,34.97
2019-05-12T16:21:09.507Z,34.91
2019-05-12T16:23:39.688Z,35.17
2019-05-12T16:26:12.517Z,34.10
2019-05-12T16:28:44.305Z,35.97
2019-05-12T16:31:14.644Z,37.36
2019-05-12T16:33:44.731Z,37.85
2019-05-12T16:36:14.823Z,37.84
2019-05-12T16:38:50.164Z,38.73
2019-05-12T16:41:27.991Z,38.70
2019-05-12T16:43:54.427Z,39.13
2019-05-12T16:46:24.544Z,36.80
2019-05-12T16:48:57.464Z,36.94
2019-05-12T16:51:27.465Z,36.91
2019-05-12T16:53:57.479Z,36.78
2019-05-12T16:56:29.719Z,36.28
2019-05-12T16:58:59.310Z,34.83
2019-05-12T17:01:29.639Z,34.11
2019-05-12T17:03:59.909Z,33.97
2019-05-12T17:06:35.205Z,34.07
2019-05-12T17:09:03.539Z,35.80
2019-05-12T17:11:37.326Z,33.14
2019-05-12T17:14:06.757Z,33.41
2019-05-12T17:16:41.721Z,33.75
2019-05-12T17:19:10.802Z,33.05
2019-05-12T17:21:40.983Z,32.89
2019-05-12T17:24:11.119Z,33.18
2019-05-12T17:26:44.015Z,33.41
2019-05-12T17:29:15.660Z,34.22
2019-05-12T17:31:45.688Z,34.21
2019-05-12T17:34:15.693Z,35.05
2019-05-12T17:36:50.079Z,35.37
2019-05-12T17:39:17.572Z,35.97
2019-05-12T17:41:47.659Z,37.12
2019-05-12T17:44:17.657Z,36.59
2019-05-12T17:46:47.694Z,38.59
2019-05-12T17:49:25.371Z,39.34
2019-05-12T17:51:49.494Z,38.97
2019-05-12T17:54:26.215Z,39.31
2019-05-12T17:56:51.222Z,38.31
2019-05-12T17:59:27.590Z,39.08
2019-05-12T18:01:53.774Z,38.19
2019-05-12T18:04:26.640Z,39.14
2019-05-12T18:06:56.727Z,37.96
2019-05-12T18:09:26.759Z,39.47
2019-05-12T18:11:58.431Z,38.63
2019-05-12T18:14:28.498Z,38.54
2019-05-12T18:17:02.658Z,39.27
2019-05-12T18:19:33.697Z,40.12
2019-05-12T18:22:09.071Z,40.56
2019-05-12T18:24:40.999Z,42.21
2019-05-12T18:27:08.091Z,40.81
2019-05-12T18:29:40.238Z,40.42
2019-05-12T18:32:10.376Z,38.51
2019-05-12T18:34:44.514Z,39.10
2019-05-12T18:37:14.801Z,37.97
2019-05-12T18:39:45.047Z,37.08
2019-05-12T18:42:15.485Z,36.62
2019-05-12T18:44:48.025Z,36.40
2019-05-12T18:47:23.317Z,36.16
2019-05-12T18:49:50.160Z,36.26
2019-05-12T18:52:20.271Z,35.82
2019-05-12T18:54:52.681Z,35.81
2019-05-12T18:57:23.815Z,36.72
2019-05-12T19:00:01.184Z,36.29
2019-05-12T19:02:28.584Z,36.29
2019-05-12T19:04:59.284Z,36.45
2019-05-12T19:07:39.606Z,37.50
2019-05-12T19:10:08.331Z,37.05
2019-05-12T19:12:38.065Z,37.08
2019-05-12T19:15:10.367Z,37.60
2019-05-12T19:17:40.502Z,37.60
2019-05-12T19:20:13.979Z,38.07
2019-05-12T19:22:48.111Z,37.94
2019-05-12T19:25:15.318Z,39.09
2019-05-12T19:27:46.993Z,36.44
2019-05-12T19:30:19.379Z,36.90
2019-05-12T19:32:52.513Z,37.34
2019-05-12T19:35:23.618Z,37.43
2019-05-12T19:37:54.129Z,36.96
2019-05-12T19:40:24.176Z,38.50
2019-05-12T19:43:06.112Z,37.91
2019-05-12T19:45:27.627Z,37.04
2019-05-12T19:47:57.613Z,37.73
2019-05-12T19:50:27.634Z,37.90
2019-05-12T19:52:57.840Z,38.43
2019-05-12T19:55:27.857Z,39.09
2019-05-12T19:58:05.387Z,40.08
2019-05-12T20:00:33.574Z,39.94
2019-05-12T20:03:04.508Z,39.82
2019-05-12T20:05:35.540Z,40.67
2019-05-12T20:08:05.632Z,41.36
2019-05-12T20:10:43.565Z,41.53
2019-05-12T20:13:07.409Z,41.53
2019-05-12T20:15:41.049Z,41.57
2019-05-12T20:18:09.204Z,42.53
2019-05-12T20:20:43.991Z,43.06
2019-05-12T20:23:14.166Z,43.57
2019-05-12T20:25:44.475Z,43.68
2019-05-12T20:28:14.776Z,44.43
2019-05-12T20:30:46.363Z,45.05
2019-05-12T20:33:17.897Z,45.57
2019-05-12T20:35:50.709Z,45.83
2019-05-12T20:38:25.386Z,46.44
2019-05-12T20:40:54.044Z,46.70
2019-05-12T20:43:32.215Z,48.21
2019-05-12T20:45:56.169Z,47.96
2019-05-12T20:48:31.185Z,47.84
2019-05-12T20:50:59.413Z,48.70
2019-05-12T20:53:31.982Z,48.56
2019-05-12T20:56:03.898Z,50.25
2019-05-12T20:58:39.501Z,50.08
2019-05-12T21:01:05.856Z,49.46
2019-05-12T21:03:39.718Z,50.33
2019-05-12T21:06:07.515Z,49.86
2019-05-12T21:08:37.531Z,51.18
2019-05-12T21:11:07.617Z,50.03
2019-05-12T21:13:37.700Z,50.69
2019-05-12T21:16:16.288Z,51.00
2019-05-12T21:18:48.070Z,52.26
2019-05-12T21:21:12.255Z,51.23
2019-05-12T21:23:45.572Z,51.04
2019-05-12T21:26:14.993Z,52.21
2019-05-12T21:28:48.219Z,52.12
2019-05-12T21:31:20.465Z,53.39
2019-05-12T21:33:48.471Z,53.77
2019-05-12T21:36:24.457Z,53.67
2019-05-12T21:38:50.159Z,54.42
2019-05-12T21:41:22.564Z,54.86
2019-05-12T21:43:54.389Z,55.54
2019-05-12T21:46:24.789Z,55.60
2019-05-12T21:48:56.398Z,56.62
2019-05-12T21:51:26.507Z,57.72
2019-05-12T21:53:57.817Z,57.68
2019-05-12T21:56:37.863Z,58.70
2019-05-12T21:59:03.892Z,59.39
2019-05-12T22:01:43.514Z,58.73
2019-05-12T22:04:06.983Z,59.56
2019-05-12T22:06:37.002Z,59.80
2019-05-12T22:09:08.122Z,60.54
2019-05-12T22:11:43.911Z,60.61
2019-05-12T22:14:13.525Z,61.10
2019-05-12T22:16:46.840Z,61.39
2019-05-12T22:19:16.624Z,61.31
2019-05-12T22:21:49.200Z,61.44
2019-05-12T22:24:18.566Z,61.92
2019-05-12T22:26:48.558Z,62.56
2019-05-12T22:29:21.208Z,62.17
2019-05-12T22:31:50.343Z,61.99
2019-05-12T22:34:20.355Z,62.07
2019-05-12T22:36:57.163Z,62.52
2019-05-12T22:39:23.126Z,61.47
2019-05-12T22:41:53.284Z,61.66
2019-05-12T22:44:25.098Z,62.32
2019-05-12T22:46:55.222Z,62.91
2019-05-12T22:49:25.230Z,62.54
2019-05-12T22:52:02.706Z,62.59
2019-05-12T22:54:26.936Z,62.60
2019-05-12T22:56:57.080Z,63.01
2019-05-12T22:59:34.387Z,63.08
2019-05-12T23:01:58.803Z,63.13
2019-05-12T23:04:35.597Z,63.74
2019-05-12T23:07:00.513Z,63.71
2019-05-12T23:09:33.755Z,64.26
2019-05-12T23:12:04.207Z,64.79
2019-05-12T23:14:34.371Z,65.15
2019-05-12T23:17:06.095Z,65.18
2019-05-12T23:19:36.986Z,65.43
2019-05-12T23:22:07.007Z,65.67
2019-05-12T23:24:40.724Z,65.91
2019-05-12T23:27:09.166Z,66.31
2019-05-12T23:29:39.236Z,66.46
2019-05-12T23:32:11.861Z,66.69
2019-05-12T23:34:45.045Z,66.54
2019-05-12T23:37:14.186Z,67.11
2019-05-12T23:39:47.088Z,67.51
2019-05-12T23:42:18.685Z,67.78
2019-05-12T23:44:49.011Z,67.86
2019-05-12T23:47:19.001Z,68.58
2019-05-12T23:49:49.009Z,68.15
2019-05-12T23:52:18.988Z,68.58
2019-05-12T23:54:49.351Z,69.29
2019-05-12T23:57:19.341Z,69.37
2019-05-12T23:59:49.419Z,69.69
